sensor_id;sensor_type;location;lat;lon;timestamp;temperature;humidity
44069;DHT22;29738;51.234;5.484;2022-09-09T00:00:24;15.80;99.90
44069;DHT22;29738;51.234;5.484;2022-09-09T00:03:14;15.90;99.90
44069;DHT22;29738;51.234;5.484;2022-09-09T00:06:04;15.90;99.90
44069;DHT22;29738;51.234;5.484;2022-09-09T00:08:45;15.80;99.90
44069;DHT22;29738;51.234;5.484;2022-09-09T00:11:19;15.50;99.90
44069;DHT22;29738;51.234;5.484;2022-09-09T00:13:52;15.40;99.90
44069;DHT22;29738;51.234;5.484;2022-09-09T00:16:27;15.40;99.90
44069;DHT22;29738;51.234;5.484;2022-09-09T00:21:46;15.60;99.90
44069;DHT22;29738;51.234;5.484;2022-09-09T00:24:23;15.50;99.90
44069;DHT22;29738;51.234;5.484;2022-09-09T00:26:53;15.40;99.90
44069;DHT22;29738;51.234;5.484;2022-09-09T00:29:33;15.40;99.90
44069;DHT22;29738;51.234;5.484;2022-09-09T00:32:15;15.30;99.90
44069;DHT22;29738;51.234;5.484;2022-09-09T00:34:52;15.40;99.90
44069;DHT22;29738;51.234;5.484;2022-09-09T00:37:20;15.20;99.90
44069;DHT22;29738;51.234;5.484;2022-09-09T00:39:48;15.30;99.90
44069;DHT22;29738;51.234;5.484;2022-09-09T00:42:23;15.40;99.90
44069;DHT22;29738;51.234;5.484;2022-09-09T00:44:55;15.50;99.90
44069;DHT22;29738;51.234;5.484;2022-09-09T00:47:51;15.40;99.90
44069;DHT22;29738;51.234;5.484;2022-09-09T00:55:59;15.50;99.90
44069;DHT22;29738;51.234;5.484;2022-09-09T00:58:23;15.50;99.90
44069;DHT22;29738;51.234;5.484;2022-09-09T01:01:04;15.40;99.90
44069;DHT22;29738;51.234;5.484;2022-09-09T01:03:50;15.40;99.90
44069;DHT22;29738;51.234;5.484;2022-09-09T01:06:33;15.30;99.90
44069;DHT22;29738;51.234;5.484;2022-09-09T01:11:52;15.20;99.90
44069;DHT22;29738;51.234;5.484;2022-09-09T01:17:27;15.00;99.90
44069;DHT22;29738;51.234;5.484;2022-09-09T01:28:39;15.10;99.90
44069;DHT22;29738;51.234;5.484;2022-09-09T01:31:06;15.00;99.90
44069;DHT22;29738;51.234;5.484;2022-09-09T01:33:34;15.10;99.90
44069;DHT22;29738;51.234;5.484;2022-09-09T01:36:28;15.20;99.90
44069;DHT22;29738;51.234;5.484;2022-09-09T01:38:55;15.30;99.90
44069;DHT22;29738;51.234;5.484;2022-09-09T01:41:21;15.10;99.90
44069;DHT22;29738;51.234;5.484;2022-09-09T01:43:48;15.10;99.90
44069;DHT22;29738;51.234;5.484;2022-09-09T01:46:14;15.00;99.90
44069;DHT22;29738;51.234;5.484;2022-09-09T01:48:41;15.10;99.90
44069;DHT22;29738;51.234;5.484;2022-09-09T01:51:08;15.10;99.90
44069;DHT22;29738;51.234;5.484;2022-09-09T01:53:35;15.10;99.90
44069;DHT22;29738;51.234;5.484;2022-09-09T01:59:01;15.10;99.90
44069;DHT22;29738;51.234;5.484;2022-09-09T02:01:56;15.00;99.90
44069;DHT22;29738;51.234;5.484;2022-09-09T02:04:44;15.10;99.90
44069;DHT22;29738;51.234;5.484;2022-09-09T02:10:15;15.00;99.90
44069;DHT22;29738;51.234;5.484;2022-09-09T02:12:44;15.00;99.90
44069;DHT22;29738;51.234;5.484;2022-09-09T02:15:20;14.90;99.90
44069;DHT22;29738;51.234;5.484;2022-09-09T02:17:49;14.90;99.90
44069;DHT22;29738;51.234;5.484;2022-09-09T02:20:19;14.90;99.90
44069;DHT22;29738;51.234;5.484;2022-09-09T02:22:47;14.90;99.90
44069;DHT22;29738;51.234;5.484;2022-09-09T02:25:18;14.80;99.90
44069;DHT22;29738;51.234;5.484;2022-09-09T02:27:46;14.80;99.90
44069;DHT22;29738;51.234;5.484;2022-09-09T02:30:13;14.70;99.90
44069;DHT22;29738;51.234;5.484;2022-09-09T02:32:41;14.70;99.90
44069;DHT22;29738;51.234;5.484;2022-09-09T02:35:12;14.70;99.90
44069;DHT22;29738;51.234;5.484;2022-09-09T02:37:41;14.80;99.90
44069;DHT22;29738;51.234;5.484;2022-09-09T02:40:09;14.60;99.90
44069;DHT22;29738;51.234;5.484;2022-09-09T02:42:43;14.60;99.90
44069;DHT22;29738;51.234;5.484;2022-09-09T02:45:11;14.60;99.90
44069;DHT22;29738;51.234;5.484;2022-09-09T02:47:51;14.80;99.90
44069;DHT22;29738;51.234;5.484;2022-09-09T02:50:33;14.90;99.90
44069;DHT22;29738;51.234;5.484;2022-09-09T02:53:09;14.90;99.90
44069;DHT22;29738;51.234;5.484;2022-09-09T02:58:12;15.00;99.90
44069;DHT22;29738;51.234;5.484;2022-09-09T03:00:39;15.00;99.90
44069;DHT22;29738;51.234;5.484;2022-09-09T03:03:06;14.90;99.90
44069;DHT22;29738;51.234;5.484;2022-09-09T03:05:34;15.00;99.90
44069;DHT22;29738;51.234;5.484;2022-09-09T03:08:00;15.00;99.90
44069;DHT22;29738;51.234;5.484;2022-09-09T03:10:25;15.00;99.90
44069;DHT22;29738;51.234;5.484;2022-09-09T03:12:51;14.90;99.90
44069;DHT22;29738;51.234;5.484;2022-09-09T03:15:17;15.00;99.90
44069;DHT22;29738;51.234;5.484;2022-09-09T03:17:43;14.90;99.90
44069;DHT22;29738;51.234;5.484;2022-09-09T03:20:09;14.90;99.90
44069;DHT22;29738;51.234;5.484;2022-09-09T03:22:35;14.90;99.90
44069;DHT22;29738;51.234;5.484;2022-09-09T03:25:01;14.90;99.90
44069;DHT22;29738;51.234;5.484;2022-09-09T03:27:28;14.90;99.90
44069;DHT22;29738;51.234;5.484;2022-09-09T03:29:54;14.90;99.90
44069;DHT22;29738;51.234;5.484;2022-09-09T03:32:21;15.00;99.90
44069;DHT22;29738;51.234;5.484;2022-09-09T03:34:51;15.00;99.90
44069;DHT22;29738;51.234;5.484;2022-09-09T03:37:18;15.00;99.90
44069;DHT22;29738;51.234;5.484;2022-09-09T03:39:44;15.00;99.90
44069;DHT22;29738;51.234;5.484;2022-09-09T03:42:14;14.90;99.90
44069;DHT22;29738;51.234;5.484;2022-09-09T03:44:40;14.90;99.90
44069;DHT22;29738;51.234;5.484;2022-09-09T03:47:07;14.80;99.90
44069;DHT22;29738;51.234;5.484;2022-09-09T03:49:33;15.00;99.90
44069;DHT22;29738;51.234;5.484;2022-09-09T03:52:00;15.10;99.90
44069;DHT22;29738;51.234;5.484;2022-09-09T03:54:26;15.20;99.90
44069;DHT22;29738;51.234;5.484;2022-09-09T03:56:52;15.30;99.90
44069;DHT22;29738;51.234;5.484;2022-09-09T03:59:18;15.30;99.90
44069;DHT22;29738;51.234;5.484;2022-09-09T04:01:46;15.30;99.90
44069;DHT22;29738;51.234;5.484;2022-09-09T04:04:12;15.20;99.90
44069;DHT22;29738;51.234;5.484;2022-09-09T04:06:38;15.30;99.90
44069;DHT22;29738;51.234;5.484;2022-09-09T04:09:04;15.30;99.90
44069;DHT22;29738;51.234;5.484;2022-09-09T04:11:30;15.30;99.90
44069;DHT22;29738;51.234;5.484;2022-09-09T04:13:56;15.30;99.90
44069;DHT22;29738;51.234;5.484;2022-09-09T04:16:22;15.50;99.90
44069;DHT22;29738;51.234;5.484;2022-09-09T04:18:48;15.50;99.90
44069;DHT22;29738;51.234;5.484;2022-09-09T04:21:14;15.50;99.90
44069;DHT22;29738;51.234;5.484;2022-09-09T04:23:41;15.40;99.90
44069;DHT22;29738;51.234;5.484;2022-09-09T04:26:07;15.30;99.90
44069;DHT22;29738;51.234;5.484;2022-09-09T04:28:36;15.20;99.90
44069;DHT22;29738;51.234;5.484;2022-09-09T04:31:13;15.30;99.90
44069;DHT22;29738;51.234;5.484;2022-09-09T04:33:40;15.30;99.90
44069;DHT22;29738;51.234;5.484;2022-09-09T04:36:06;15.40;99.90
44069;DHT22;29738;51.234;5.484;2022-09-09T04:38:32;15.40;99.90
44069;DHT22;29738;51.234;5.484;2022-09-09T04:40:58;15.40;99.90
44069;DHT22;29738;51.234;5.484;2022-09-09T04:43:24;15.40;99.90
44069;DHT22;29738;51.234;5.484;2022-09-09T04:45:53;15.40;99.90
44069;DHT22;29738;51.234;5.484;2022-09-09T04:48:20;15.50;99.90
44069;DHT22;29738;51.234;5.484;2022-09-09T04:50:59;15.60;99.90
44069;DHT22;29738;51.234;5.484;2022-09-09T04:53:26;15.60;99.90
44069;DHT22;29738;51.234;5.484;2022-09-09T04:56:01;15.50;99.90
44069;DHT22;29738;51.234;5.484;2022-09-09T04:58:27;15.30;99.90
44069;DHT22;29738;51.234;5.484;2022-09-09T05:00:53;15.30;99.90
44069;DHT22;29738;51.234;5.484;2022-09-09T05:03:19;15.10;99.90
44069;DHT22;29738;51.234;5.484;2022-09-09T05:05:44;15.20;99.90
44069;DHT22;29738;51.234;5.484;2022-09-09T05:08:10;15.40;99.90
44069;DHT22;29738;51.234;5.484;2022-09-09T05:10:38;15.40;99.90
44069;DHT22;29738;51.234;5.484;2022-09-09T05:13:04;15.40;99.90
44069;DHT22;29738;51.234;5.484;2022-09-09T05:15:30;15.40;99.90
44069;DHT22;29738;51.234;5.484;2022-09-09T05:18:00;15.30;99.90
44069;DHT22;29738;51.234;5.484;2022-09-09T05:20:26;15.30;99.90
44069;DHT22;29738;51.234;5.484;2022-09-09T05:22:56;15.10;99.90
44069;DHT22;29738;51.234;5.484;2022-09-09T05:25:23;15.20;99.90
44069;DHT22;29738;51.234;5.484;2022-09-09T05:27:51;15.20;99.90
44069;DHT22;29738;51.234;5.484;2022-09-09T05:30:19;15.10;99.90
44069;DHT22;29738;51.234;5.484;2022-09-09T05:32:45;15.40;99.90
44069;DHT22;29738;51.234;5.484;2022-09-09T05:35:13;15.30;99.90
44069;DHT22;29738;51.234;5.484;2022-09-09T05:37:39;15.40;99.90
44069;DHT22;29738;51.234;5.484;2022-09-09T05:40:05;15.10;99.90
44069;DHT22;29738;51.234;5.484;2022-09-09T05:42:31;15.10;99.90
44069;DHT22;29738;51.234;5.484;2022-09-09T05:44:57;15.00;99.90
44069;DHT22;29738;51.234;5.484;2022-09-09T05:47:23;15.10;99.90
44069;DHT22;29738;51.234;5.484;2022-09-09T05:49:49;15.10;99.90
44069;DHT22;29738;51.234;5.484;2022-09-09T05:52:15;15.10;99.90
44069;DHT22;29738;51.234;5.484;2022-09-09T05:54:41;15.10;99.90
44069;DHT22;29738;51.234;5.484;2022-09-09T05:57:08;15.10;99.90
44069;DHT22;29738;51.234;5.484;2022-09-09T05:59:34;15.10;99.90
44069;DHT22;29738;51.234;5.484;2022-09-09T06:01:59;15.10;99.90
44069;DHT22;29738;51.234;5.484;2022-09-09T06:04:25;15.20;99.90
44069;DHT22;29738;51.234;5.484;2022-09-09T06:06:51;15.10;99.90
44069;DHT22;29738;51.234;5.484;2022-09-09T06:09:17;15.20;99.90
44069;DHT22;29738;51.234;5.484;2022-09-09T06:11:43;15.30;99.90
44069;DHT22;29738;51.234;5.484;2022-09-09T06:14:09;15.40;99.90
44069;DHT22;29738;51.234;5.484;2022-09-09T06:16:35;15.40;99.90
44069;DHT22;29738;51.234;5.484;2022-09-09T06:19:03;15.60;99.90
44069;DHT22;29738;51.234;5.484;2022-09-09T06:21:34;15.50;99.90
44069;DHT22;29738;51.234;5.484;2022-09-09T06:24:00;15.60;99.90
44069;DHT22;29738;51.234;5.484;2022-09-09T06:26:30;15.40;99.90
44069;DHT22;29738;51.234;5.484;2022-09-09T06:28:57;15.70;99.90
44069;DHT22;29738;51.234;5.484;2022-09-09T06:31:26;15.70;99.90
44069;DHT22;29738;51.234;5.484;2022-09-09T06:33:53;15.80;99.90
44069;DHT22;29738;51.234;5.484;2022-09-09T06:36:26;15.90;99.90
44069;DHT22;29738;51.234;5.484;2022-09-09T06:38:52;16.00;99.90
44069;DHT22;29738;51.234;5.484;2022-09-09T06:41:20;16.00;99.90
44069;DHT22;29738;51.234;5.484;2022-09-09T06:43:46;16.00;99.90
44069;DHT22;29738;51.234;5.484;2022-09-09T06:46:14;16.30;99.90
44069;DHT22;29738;51.234;5.484;2022-09-09T06:48:41;16.40;99.90
44069;DHT22;29738;51.234;5.484;2022-09-09T06:53:40;16.40;99.90
44069;DHT22;29738;51.234;5.484;2022-09-09T06:56:28;16.50;99.90
44069;DHT22;29738;51.234;5.484;2022-09-09T06:58:56;16.60;99.90
44069;DHT22;29738;51.234;5.484;2022-09-09T07:01:26;16.90;99.90
44069;DHT22;29738;51.234;5.484;2022-09-09T07:03:54;16.90;99.90
44069;DHT22;29738;51.234;5.484;2022-09-09T07:06:22;17.00;99.90
44069;DHT22;29738;51.234;5.484;2022-09-09T07:08:55;17.00;99.90
44069;DHT22;29738;51.234;5.484;2022-09-09T07:11:22;16.80;99.90
44069;DHT22;29738;51.234;5.484;2022-09-09T07:13:48;16.90;99.90
44069;DHT22;29738;51.234;5.484;2022-09-09T07:16:19;16.90;99.90
44069;DHT22;29738;51.234;5.484;2022-09-09T07:18:45;17.00;99.90
44069;DHT22;29738;51.234;5.484;2022-09-09T07:21:13;17.10;99.90
44069;DHT22;29738;51.234;5.484;2022-09-09T07:23:39;17.20;99.90
44069;DHT22;29738;51.234;5.484;2022-09-09T07:26:10;17.40;99.90
44069;DHT22;29738;51.234;5.484;2022-09-09T07:28:37;17.40;99.90
44069;DHT22;29738;51.234;5.484;2022-09-09T07:31:04;17.30;99.90
44069;DHT22;29738;51.234;5.484;2022-09-09T07:33:32;17.40;99.90
44069;DHT22;29738;51.234;5.484;2022-09-09T07:36:10;17.40;99.90
44069;DHT22;29738;51.234;5.484;2022-09-09T07:41:16;17.50;99.90
44069;DHT22;29738;51.234;5.484;2022-09-09T07:43:44;17.40;99.90
44069;DHT22;29738;51.234;5.484;2022-09-09T07:46:11;17.50;99.90
44069;DHT22;29738;51.234;5.484;2022-09-09T07:48:38;17.70;99.90
44069;DHT22;29738;51.234;5.484;2022-09-09T07:51:05;17.90;99.90
44069;DHT22;29738;51.234;5.484;2022-09-09T07:53:31;17.80;99.90
44069;DHT22;29738;51.234;5.484;2022-09-09T07:56:09;17.70;99.90
44069;DHT22;29738;51.234;5.484;2022-09-09T07:58:36;17.70;99.90
44069;DHT22;29738;51.234;5.484;2022-09-09T08:01:11;17.70;99.90
44069;DHT22;29738;51.234;5.484;2022-09-09T08:03:38;17.70;99.90
44069;DHT22;29738;51.234;5.484;2022-09-09T08:06:06;17.60;99.90
44069;DHT22;29738;51.234;5.484;2022-09-09T08:08:33;17.80;99.90
44069;DHT22;29738;51.234;5.484;2022-09-09T08:11:08;17.80;99.90
44069;DHT22;29738;51.234;5.484;2022-09-09T08:13:36;17.90;99.90
44069;DHT22;29738;51.234;5.484;2022-09-09T08:16:15;18.00;99.90
44069;DHT22;29738;51.234;5.484;2022-09-09T08:18:41;17.90;99.90
44069;DHT22;29738;51.234;5.484;2022-09-09T08:21:10;17.90;99.90
44069;DHT22;29738;51.234;5.484;2022-09-09T08:23:42;17.90;99.90
44069;DHT22;29738;51.234;5.484;2022-09-09T08:26:14;18.00;99.90
44069;DHT22;29738;51.234;5.484;2022-09-09T08:28:41;17.80;99.90
44069;DHT22;29738;51.234;5.484;2022-09-09T08:31:09;17.90;99.90
44069;DHT22;29738;51.234;5.484;2022-09-09T08:33:35;17.80;99.90
44069;DHT22;29738;51.234;5.484;2022-09-09T08:36:04;17.80;99.90
44069;DHT22;29738;51.234;5.484;2022-09-09T08:38:30;17.90;99.90
44069;DHT22;29738;51.234;5.484;2022-09-09T08:41:12;18.10;99.90
44069;DHT22;29738;51.234;5.484;2022-09-09T08:43:43;18.20;99.90
44069;DHT22;29738;51.234;5.484;2022-09-09T08:51:59;18.20;99.90
44069;DHT22;29738;51.234;5.484;2022-09-09T08:54:30;18.20;99.90
44069;DHT22;29738;51.234;5.484;2022-09-09T08:56:58;18.20;99.90
44069;DHT22;29738;51.234;5.484;2022-09-09T08:59:24;18.30;99.90
44069;DHT22;29738;51.234;5.484;2022-09-09T09:01:55;18.30;99.90
44069;DHT22;29738;51.234;5.484;2022-09-09T09:12:22;18.60;99.90
44069;DHT22;29738;51.234;5.484;2022-09-09T09:14:50;18.60;99.90
44069;DHT22;29738;51.234;5.484;2022-09-09T09:17:20;18.50;99.90
44069;DHT22;29738;51.234;5.484;2022-09-09T09:19:48;18.60;99.90
44069;DHT22;29738;51.234;5.484;2022-09-09T09:22:41;18.50;99.90
44069;DHT22;29738;51.234;5.484;2022-09-09T09:25:35;18.60;99.90
44069;DHT22;29738;51.234;5.484;2022-09-09T09:28:13;18.80;99.90
44069;DHT22;29738;51.234;5.484;2022-09-09T09:30:59;18.80;99.90
44069;DHT22;29738;51.234;5.484;2022-09-09T09:33:50;18.70;99.90
44069;DHT22;29738;51.234;5.484;2022-09-09T09:36:19;18.70;99.90
44069;DHT22;29738;51.234;5.484;2022-09-09T09:38:57;18.70;99.90
44069;DHT22;29738;51.234;5.484;2022-09-09T09:41:38;18.90;99.90
44069;DHT22;29738;51.234;5.484;2022-09-09T09:44:05;18.90;99.90
44069;DHT22;29738;51.234;5.484;2022-09-09T09:46:45;18.70;99.90
44069;DHT22;29738;51.234;5.484;2022-09-09T09:49:11;18.60;99.90
44069;DHT22;29738;51.234;5.484;2022-09-09T09:51:39;18.50;99.90
44069;DHT22;29738;51.234;5.484;2022-09-09T09:56:42;18.50;99.90
44069;DHT22;29738;51.234;5.484;2022-09-09T09:59:36;18.60;99.90
44069;DHT22;29738;51.234;5.484;2022-09-09T10:02:14;18.90;99.90
44069;DHT22;29738;51.234;5.484;2022-09-09T10:04:40;18.80;99.90
44069;DHT22;29738;51.234;5.484;2022-09-09T10:07:20;18.70;99.90
44069;DHT22;29738;51.234;5.484;2022-09-09T10:09:52;18.60;99.90
44069;DHT22;29738;51.234;5.484;2022-09-09T10:18:02;18.10;99.90
44069;DHT22;29738;51.234;5.484;2022-09-09T10:23:26;18.20;99.90
44069;DHT22;29738;51.234;5.484;2022-09-09T10:35:29;17.60;99.90
44069;DHT22;29738;51.234;5.484;2022-09-09T10:43:39;17.20;99.90
44069;DHT22;29738;51.234;5.484;2022-09-09T10:49:04;16.90;99.90
44069;DHT22;29738;51.234;5.484;2022-09-09T10:55:13;17.00;99.90
44069;DHT22;29738;51.234;5.484;2022-09-09T10:57:50;17.30;99.90
44069;DHT22;29738;51.234;5.484;2022-09-09T11:00:22;17.20;99.90
44069;DHT22;29738;51.234;5.484;2022-09-09T11:02:52;17.20;99.90
44069;DHT22;29738;51.234;5.484;2022-09-09T11:05:21;17.30;99.90
44069;DHT22;29738;51.234;5.484;2022-09-09T11:08:05;17.50;99.90
44069;DHT22;29738;51.234;5.484;2022-09-09T11:11:01;17.60;99.90
44069;DHT22;29738;51.234;5.484;2022-09-09T11:16:42;17.50;99.90
44069;DHT22;29738;51.234;5.484;2022-09-09T11:19:36;17.60;99.90
44069;DHT22;29738;51.234;5.484;2022-09-09T11:25:02;17.60;99.90
44069;DHT22;29738;51.234;5.484;2022-09-09T11:30:22;18.10;99.90
44069;DHT22;29738;51.234;5.484;2022-09-09T11:41:07;18.20;99.90
44069;DHT22;29738;51.234;5.484;2022-09-09T11:43:49;18.50;99.90
44069;DHT22;29738;51.234;5.484;2022-09-09T11:46:21;18.60;99.90
44069;DHT22;29738;51.234;5.484;2022-09-09T11:49:03;18.70;99.90
44069;DHT22;29738;51.234;5.484;2022-09-09T11:51:31;18.60;99.90
44069;DHT22;29738;51.234;5.484;2022-09-09T11:54:02;18.90;99.90
44069;DHT22;29738;51.234;5.484;2022-09-09T11:56:47;19.00;99.90
44069;DHT22;29738;51.234;5.484;2022-09-09T12:02:16;19.00;99.90
44069;DHT22;29738;51.234;5.484;2022-09-09T12:05:07;19.20;99.90
44069;DHT22;29738;51.234;5.484;2022-09-09T12:07:37;19.20;99.90
44069;DHT22;29738;51.234;5.484;2022-09-09T12:12:48;19.20;99.90
44069;DHT22;29738;51.234;5.484;2022-09-09T12:15:25;19.50;99.90
44069;DHT22;29738;51.234;5.484;2022-09-09T12:17:59;19.30;99.90
44069;DHT22;29738;51.234;5.484;2022-09-09T12:23:35;19.40;99.90
44069;DHT22;29738;51.234;5.484;2022-09-09T12:26:19;19.40;99.90
44069;DHT22;29738;51.234;5.484;2022-09-09T12:29:02;19.50;99.90
44069;DHT22;29738;51.234;5.484;2022-09-09T12:37:36;20.10;99.90
44069;DHT22;29738;51.234;5.484;2022-09-09T12:40:17;20.10;99.90
44069;DHT22;29738;51.234;5.484;2022-09-09T12:42:44;20.10;99.90
44069;DHT22;29738;51.234;5.484;2022-09-09T12:45:21;20.30;99.90
44069;DHT22;29738;51.234;5.484;2022-09-09T12:50:30;20.60;99.90
44069;DHT22;29738;51.234;5.484;2022-09-09T12:53:02;20.80;99.90
44069;DHT22;29738;51.234;5.484;2022-09-09T12:55:32;20.80;99.90
44069;DHT22;29738;51.234;5.484;2022-09-09T12:57:59;21.00;99.90
44069;DHT22;29738;51.234;5.484;2022-09-09T13:00:29;21.10;99.90
44069;DHT22;29738;51.234;5.484;2022-09-09T13:03:01;20.80;99.90
44069;DHT22;29738;51.234;5.484;2022-09-09T13:05:35;20.20;99.90
44069;DHT22;29738;51.234;5.484;2022-09-09T13:08:06;20.00;99.90
44069;DHT22;29738;51.234;5.484;2022-09-09T13:10:39;20.00;99.90
44069;DHT22;29738;51.234;5.484;2022-09-09T13:13:17;19.90;99.90
44069;DHT22;29738;51.234;5.484;2022-09-09T13:15:55;19.90;99.90
44069;DHT22;29738;51.234;5.484;2022-09-09T13:18:24;19.90;99.90
44069;DHT22;29738;51.234;5.484;2022-09-09T13:20:51;19.90;99.90
44069;DHT22;29738;51.234;5.484;2022-09-09T13:23:19;19.90;99.90
44069;DHT22;29738;51.234;5.484;2022-09-09T13:26:00;19.80;99.90
44069;DHT22;29738;51.234;5.484;2022-09-09T13:28:29;19.90;99.90
44069;DHT22;29738;51.234;5.484;2022-09-09T13:31:02;20.00;99.90
44069;DHT22;29738;51.234;5.484;2022-09-09T13:33:36;20.10;99.90
44069;DHT22;29738;51.234;5.484;2022-09-09T13:36:09;20.00;99.90
44069;DHT22;29738;51.234;5.484;2022-09-09T13:38:38;20.00;99.90
44069;DHT22;29738;51.234;5.484;2022-09-09T13:41:18;20.30;99.90
44069;DHT22;29738;51.234;5.484;2022-09-09T13:43:47;20.40;99.90
44069;DHT22;29738;51.234;5.484;2022-09-09T13:46:39;20.20;99.90
44069;DHT22;29738;51.234;5.484;2022-09-09T13:54:16;20.60;99.90
44069;DHT22;29738;51.234;5.484;2022-09-09T13:56:43;20.50;99.90
44069;DHT22;29738;51.234;5.484;2022-09-09T13:59:14;20.50;99.90
44069;DHT22;29738;51.234;5.484;2022-09-09T14:01:40;20.70;99.90
44069;DHT22;29738;51.234;5.484;2022-09-09T14:04:07;20.60;99.90
44069;DHT22;29738;51.234;5.484;2022-09-09T14:06:35;20.40;99.90
44069;DHT22;29738;51.234;5.484;2022-09-09T14:09:04;20.30;99.90
44069;DHT22;29738;51.234;5.484;2022-09-09T14:11:30;20.60;99.90
44069;DHT22;29738;51.234;5.484;2022-09-09T14:13:56;20.60;99.90
44069;DHT22;29738;51.234;5.484;2022-09-09T14:16:22;20.70;99.90
44069;DHT22;29738;51.234;5.484;2022-09-09T14:18:48;20.70;99.90
44069;DHT22;29738;51.234;5.484;2022-09-09T14:21:14;20.50;99.90
44069;DHT22;29738;51.234;5.484;2022-09-09T14:23:41;20.70;99.90
44069;DHT22;29738;51.234;5.484;2022-09-09T14:26:07;20.60;99.90
44069;DHT22;29738;51.234;5.484;2022-09-09T14:28:34;20.60;99.90
44069;DHT22;29738;51.234;5.484;2022-09-09T14:31:01;20.50;99.90
44069;DHT22;29738;51.234;5.484;2022-09-09T14:33:27;20.40;99.90
44069;DHT22;29738;51.234;5.484;2022-09-09T14:36:00;20.50;99.90
44069;DHT22;29738;51.234;5.484;2022-09-09T14:38:34;20.50;99.90
44069;DHT22;29738;51.234;5.484;2022-09-09T14:41:07;20.50;99.90
44069;DHT22;29738;51.234;5.484;2022-09-09T14:43:34;20.70;99.90
44069;DHT22;29738;51.234;5.484;2022-09-09T14:46:12;21.10;99.90
44069;DHT22;29738;51.234;5.484;2022-09-09T14:48:38;21.10;99.90
44069;DHT22;29738;51.234;5.484;2022-09-09T14:51:10;21.10;99.90
44069;DHT22;29738;51.234;5.484;2022-09-09T14:53:39;21.00;99.90
44069;DHT22;29738;51.234;5.484;2022-09-09T14:56:10;20.90;99.90
44069;DHT22;29738;51.234;5.484;2022-09-09T14:58:37;20.90;99.90
44069;DHT22;29738;51.234;5.484;2022-09-09T15:01:17;20.70;99.90
44069;DHT22;29738;51.234;5.484;2022-09-09T15:03:51;21.00;99.90
44069;DHT22;29738;51.234;5.484;2022-09-09T15:06:17;21.00;99.90
44069;DHT22;29738;51.234;5.484;2022-09-09T15:08:44;20.80;99.90
44069;DHT22;29738;51.234;5.484;2022-09-09T15:11:12;20.60;99.90
44069;DHT22;29738;51.234;5.484;2022-09-09T15:13:39;20.50;99.90
44069;DHT22;29738;51.234;5.484;2022-09-09T15:16:13;20.30;99.90
44069;DHT22;29738;51.234;5.484;2022-09-09T15:18:40;20.20;99.90
44069;DHT22;29738;51.234;5.484;2022-09-09T15:21:13;20.30;99.90
44069;DHT22;29738;51.234;5.484;2022-09-09T15:23:39;20.40;99.90
44069;DHT22;29738;51.234;5.484;2022-09-09T15:26:06;20.60;99.90
44069;DHT22;29738;51.234;5.484;2022-09-09T15:28:33;20.60;99.90
44069;DHT22;29738;51.234;5.484;2022-09-09T15:31:23;20.60;99.90
44069;DHT22;29738;51.234;5.484;2022-09-09T15:33:51;20.60;99.90
44069;DHT22;29738;51.234;5.484;2022-09-09T15:36:22;20.60;99.90
44069;DHT22;29738;51.234;5.484;2022-09-09T15:38:49;20.50;99.90
44069;DHT22;29738;51.234;5.484;2022-09-09T15:41:16;20.70;99.90
44069;DHT22;29738;51.234;5.484;2022-09-09T15:43:47;20.70;99.90
44069;DHT22;29738;51.234;5.484;2022-09-09T15:48:46;20.80;99.90
44069;DHT22;29738;51.234;5.484;2022-09-09T15:51:12;20.80;99.90
44069;DHT22;29738;51.234;5.484;2022-09-09T15:53:39;20.70;99.90
44069;DHT22;29738;51.234;5.484;2022-09-09T15:56:08;20.80;99.90
44069;DHT22;29738;51.234;5.484;2022-09-09T15:58:34;20.90;99.90
44069;DHT22;29738;51.234;5.484;2022-09-09T16:01:08;21.10;99.90
44069;DHT22;29738;51.234;5.484;2022-09-09T16:03:40;21.30;99.90
44069;DHT22;29738;51.234;5.484;2022-09-09T16:06:12;21.30;99.90
44069;DHT22;29738;51.234;5.484;2022-09-09T16:08:41;21.30;99.90
44069;DHT22;29738;51.234;5.484;2022-09-09T16:11:19;21.30;99.90
44069;DHT22;29738;51.234;5.484;2022-09-09T16:13:48;21.00;99.90
44069;DHT22;29738;51.234;5.484;2022-09-09T16:16:16;20.80;99.90
44069;DHT22;29738;51.234;5.484;2022-09-09T16:18:44;20.40;99.90
44069;DHT22;29738;51.234;5.484;2022-09-09T16:21:20;20.40;99.90
44069;DHT22;29738;51.234;5.484;2022-09-09T16:23:47;20.20;99.90
44069;DHT22;29738;51.234;5.484;2022-09-09T16:26:15;20.10;99.90
44069;DHT22;29738;51.234;5.484;2022-09-09T16:28:41;20.00;99.90
44069;DHT22;29738;51.234;5.484;2022-09-09T16:31:08;19.90;99.90
44069;DHT22;29738;51.234;5.484;2022-09-09T16:33:38;20.00;99.90
44069;DHT22;29738;51.234;5.484;2022-09-09T16:36:08;20.10;99.90
44069;DHT22;29738;51.234;5.484;2022-09-09T16:38:34;20.10;99.90
44069;DHT22;29738;51.234;5.484;2022-09-09T16:41:02;20.10;99.90
44069;DHT22;29738;51.234;5.484;2022-09-09T16:43:28;20.10;99.90
44069;DHT22;29738;51.234;5.484;2022-09-09T16:45:54;20.20;99.90
44069;DHT22;29738;51.234;5.484;2022-09-09T16:48:20;20.10;99.90
44069;DHT22;29738;51.234;5.484;2022-09-09T16:50:49;19.80;99.90
44069;DHT22;29738;51.234;5.484;2022-09-09T16:53:15;18.70;99.90
44069;DHT22;29738;51.234;5.484;2022-09-09T16:55:41;18.10;99.90
44069;DHT22;29738;51.234;5.484;2022-09-09T16:58:12;17.80;99.90
44069;DHT22;29738;51.234;5.484;2022-09-09T17:00:38;17.60;99.90
44069;DHT22;29738;51.234;5.484;2022-09-09T17:03:03;17.40;99.90
44069;DHT22;29738;51.234;5.484;2022-09-09T17:05:29;17.30;99.90
44069;DHT22;29738;51.234;5.484;2022-09-09T17:07:55;17.40;99.90
44069;DHT22;29738;51.234;5.484;2022-09-09T17:10:24;17.40;99.90
44069;DHT22;29738;51.234;5.484;2022-09-09T17:12:50;17.20;99.90
44069;DHT22;29738;51.234;5.484;2022-09-09T17:15:17;17.20;99.90
44069;DHT22;29738;51.234;5.484;2022-09-09T17:17:44;17.30;99.90
44069;DHT22;29738;51.234;5.484;2022-09-09T17:20:10;17.00;99.90
44069;DHT22;29738;51.234;5.484;2022-09-09T17:22:36;17.20;99.90
44069;DHT22;29738;51.234;5.484;2022-09-09T17:25:02;17.10;99.90
44069;DHT22;29738;51.234;5.484;2022-09-09T17:27:29;17.00;99.90
44069;DHT22;29738;51.234;5.484;2022-09-09T17:29:57;17.00;99.90
44069;DHT22;29738;51.234;5.484;2022-09-09T17:32:24;16.90;99.90
44069;DHT22;29738;51.234;5.484;2022-09-09T17:34:50;16.80;99.90
44069;DHT22;29738;51.234;5.484;2022-09-09T17:37:16;17.10;99.90
44069;DHT22;29738;51.234;5.484;2022-09-09T17:39:42;17.00;99.90
44069;DHT22;29738;51.234;5.484;2022-09-09T17:42:09;17.00;99.90
44069;DHT22;29738;51.234;5.484;2022-09-09T17:44:36;17.10;99.90
44069;DHT22;29738;51.234;5.484;2022-09-09T17:47:02;17.30;99.90
44069;DHT22;29738;51.234;5.484;2022-09-09T17:49:29;17.30;99.90
44069;DHT22;29738;51.234;5.484;2022-09-09T17:51:55;17.40;99.90
44069;DHT22;29738;51.234;5.484;2022-09-09T17:54:22;17.40;99.90